DW9029 Weather Reports


Display with metric or nautical units.
time (UTC)temp
F
wind
direction
speed
MPH
gust
MPH
rain 1hr
in
rain 24hr
in
rain mn
in
humidity
%
barometer
mb
20181016121903 69 344 0.0 0.0 0.00 0.56 0.01 72 1013.7
20181016121403 69 356 1.0 6.0 0.00 0.56 0.01 72 1013.7
20181016120903 69 69 0.0 0.0 0.00 0.56 0.01 73 1013.7
20181016120404 69 38 0.0 0.0 0.00 0.56 0.01 73 1013.8
20181016114903 68 333 0.0 5.0 0.00 0.56 0.01 73 1013.9
20181016114403 67 31 3.0 6.0 0.00 0.56 0.01 73 1013.9
20181016113903 67 0 3.0 5.0 0.00 0.56 0.01 75 1014.0
20181016113403 67 60 0.0 6.0 0.00 0.56 0.01 77 1014.0
20181016111903 67 353 2.0 5.0 0.00 0.56 0.01 79 1014.0
20181016111403 66 51 1.0 3.0 0.00 0.56 0.01 80 1014.0
20181016110903 66 31 0.0 0.0 0.00 0.56 0.01 80 1014.0
20181016110403 66 16 2.0 6.0 0.00 0.56 0.01 81 1014.0
20181016104903 65 55 0.0 0.0 0.00 0.56 0.01 83 1013.9
20181016104403 65 13 2.0 7.0 0.00 0.56 0.01 84 1013.9
20181016103903 65 76 1.0 5.0 0.00 0.56 0.01 84 1013.9
20181016103404 65 41 3.0 7.0 0.00 0.56 0.01 85 1013.9
20181016101903 65 28 3.0 5.0 0.00 0.56 0.01 85 1013.9
20181016101403 65 28 2.0 6.0 0.00 0.56 0.01 85 1013.8
20181016100903 65 32 1.0 7.0 0.00 0.56 0.01 84 1013.7
20181016100403 65 12 1.0 6.0 0.00 0.56 0.01 85 1013.7
20181016094903 64 355 0.0 2.0 0.00 0.56 0.01 86 1013.7
20181016094403 64 351 1.0 3.0 0.00 0.56 0.01 86 1013.6
20181016093903 64 354 0.0 3.0 0.00 0.56 0.01 87 1013.6
20181016093403 64 5 0.0 0.0 0.00 0.56 0.01 88 1013.6
20181016091904 63 11 0.0 0.0 0.00 0.56 0.01 89 1013.7
20181016091404 63 32 0.0 0.0 0.00 0.56 0.01 89 1013.6
20181016090903 63 72 0.0 0.0 0.00 0.56 0.01 90 1013.6
20181016090403 63 72 0.0 0.0 0.00 0.56 0.01 91 1013.6
20181016084903 62 70 0.0 0.0 0.00 0.56 0.01 92 1013.4
20181016084403 62 44 0.0 0.0 0.00 0.56 0.01 92 1013.3
20181016083903 62 43 0.0 0.0 0.00 0.56 0.01 93 1013.3
20181016083404 62 53 0.0 0.0 0.00 0.56 0.01 93 1013.3
20181016081904 62 8 0.0 1.0 0.00 0.56 0.01 94 1013.3
20181016081403 61 6 0.0 0.0 0.00 0.56 0.01 94 1013.3
20181016080905 61 11 0.0 0.0 0.00 0.56 0.01 94 1013.2
20181016080403 61 26 0.0 1.0 0.00 0.56 0.01 94 1013.1
20181016074903 61 344 0.0 0.0 0.00 0.56 0.01 94 1012.8
20181016074403 61 350 0.0 0.0 0.00 0.56 0.01 94 1012.8
20181016073903 61 7 0.0 0.0 0.00 0.56 0.01 94 1012.7
20181016073404 61 7 0.0 3.0 0.00 0.56 0.01 94 1012.6
20181016071903 61 347 0.0 0.0 0.00 0.56 0.01 94 1012.4
20181016071404 61 351 0.0 0.0 0.00 0.56 0.01 94 1012.4
20181016070903 61 344 0.0 0.0 0.00 0.56 0.01 94 1012.3
20181016070404 61 345 0.0 0.0 0.00 0.56 0.01 94 1012.2
20181016064903 61 345 0.0 0.0 0.00 0.56 0.01 94 1011.9
20181016064404 61 345 0.0 0.0 0.00 0.56 0.01 94 1011.8
20181016063903 61 345 0.0 0.0 0.00 0.56 0.01 94 1011.8
20181016063403 61 0 0.0 0.0 0.00 0.56 0.01 94 1011.8
20181016061904 61 3 0.0 0.0 0.00 0.56 0.01 94 1011.7
20181016061403 61 33 0.0 0.0 0.00 0.56 0.01 94 1011.7
20181016060904 61 36 0.0 0.0 0.00 0.56 0.01 94 1011.6
20181016060403 61 43 0.0 0.0 0.00 0.56 0.01 94 1011.5
20181016054903 61 44 0.0 0.0 0.00 0.56 0.01 94 1011.4
20181016054403 61 44 0.0 0.0 0.00 0.56 0.01 94 1011.4
20181016053904 61 44 0.0 0.0 0.00 0.56 0.01 94 1011.4
20181016053403 61 44 0.0 0.0 0.00 0.56 0.01 94 1011.3
20181016051904 61 44 0.0 0.0 0.00 0.56 0.01 95 1011.3
20181016051403 61 44 0.0 0.0 0.00 0.56 0.01 95 1011.3
20181016050903 61 42 0.0 0.0 0.00 0.56 0.01 95 1011.3
20181016050403 61 36 0.0 0.0 0.00 0.56 0.01 95 1011.3
20181016044904 61 15 0.0 0.0 0.00 0.56 0.01 95 1011.3
20181016044403 61 21 0.0 0.0 0.00 0.56 0.01 95 1011.3
20181016043904 61 6 0.0 0.0 0.00 0.56 0.01 95 1011.2
20181016043403 61 15 0.0 0.0 0.00 0.56 0.01 95 1011.1
20181016041903 61 326 0.0 0.0 0.01 0.56 0.01 95 1010.9
20181016041403 61 325 0.0 0.0 0.01 0.56 0.01 95 1010.9
20181016040904 61 340 0.0 0.0 0.01 0.56 0.01 95 1010.8
20181016040404 61 342 0.0 0.0 0.01 0.56 0.01 94 1010.8
20181016034903 61 355 0.0 0.0 0.01 0.56 0.01 94 1010.7
20181016034403 61 338 0.0 0.0 0.01 0.56 0.01 94 1010.7
20181016033904 61 338 0.0 1.0 0.01 0.56 0.01 94 1010.6
20181016033403 61 355 0.0 0.0 0.01 0.56 0.01 94 1010.6
20181016031903 61 355 0.0 0.0 0.00 0.55 0.00 94 1010.5
20181016031404 61 355 0.0 0.0 0.00 0.55 0.00 94 1010.4
20181016030903 60 355 0.0 0.0 0.00 0.55 0.00 94 1010.4
20181016030403 61 355 0.0 0.0 0.00 0.55 0.00 94 1010.3
20181016024904 61 355 0.0 0.0 0.00 0.55 0.00 94 1010.2
20181016024404 61 355 0.0 0.0 0.00 0.55 0.00 94 1010.2
20181016023903 61 355 0.0 0.0 0.00 0.55 0.00 94 1010.1
20181016023403 61 355 0.0 0.0 0.00 0.55 0.00 94 1010.1
20181016021903 61 355 0.0 0.0 0.00 0.55 0.00 94 1010.2
20181016021403 61 355 0.0 0.0 0.00 0.55 0.00 94 1010.2
20181016020904 61 355 0.0 0.0 0.00 0.55 0.00 94 1010.2
20181016020403 61 355 0.0 0.0 0.00 0.55 0.00 94 1010.3
20181016014903 62 355 0.0 0.0 0.00 0.55 0.00 94 1010.3
20181016014403 62 355 0.0 0.0 0.00 0.55 0.00 94 1010.3
20181016013903 62 355 0.0 0.0 0.00 0.55 0.00 94 1010.3
20181016013403 62 11 0.0 0.0 0.00 0.55 0.00 94 1010.3
20181016011903 62 11 0.0 0.0 0.00 0.55 0.00 94 1010.5
20181016011403 62 11 0.0 0.0 0.00 0.55 0.00 94 1010.5
20181016010903 62 11 0.0 0.0 0.00 0.55 0.00 94 1010.5
20181016010404 62 11 0.0 0.0 0.00 0.55 0.00 94 1010.5
20181016004904 62 11 0.0 0.0 0.00 0.55 0.00 94 1010.6
20181016004404 62 11 0.0 0.0 0.00 0.55 0.00 94 1010.6
20181016003903 62 11 0.0 0.0 0.00 0.55 0.00 94 1010.7
20181016003404 62 11 0.0 0.0 0.00 0.55 0.00 94 1010.7
20181016001903 62 11 0.0 0.0 0.00 0.55 0.00 94 1010.7
20181016001403 62 11 0.0 0.0 0.00 0.55 0.00 93 1010.7
20181016000904 62 11 0.0 0.0 0.00 0.55 0.00 93 1010.7
20181016000403 62 11 0.0 0.0 0.00 0.55 0.00 93 1010.7
20181015234903 62 11 0.0 0.0 0.00 0.55 0.00 93 1010.6
20181015234403 62 12 0.0 0.0 0.00 0.55 0.00 93 1010.7
20181015233904 62 26 0.0 0.0 0.00 0.55 0.00 93 1010.6
20181015233403 62 27 0.0 1.0 0.00 0.55 0.00 93 1010.5
20181015231903 63 22 0.0 0.0 0.00 0.55 0.00 92 1010.5
20181015231404 63 27 0.0 0.0 0.00 0.55 0.00 92 1010.4
20181015230903 63 271 0.0 0.0 0.00 0.55 0.00 92 1010.5
20181015230403 63 271 0.0 0.0 0.00 0.55 0.00 92 1010.5
20181015224903 63 271 0.0 0.0 0.00 0.55 0.00 92 1010.5
20181015224404 63 271 0.0 0.0 0.00 0.55 0.00 92 1010.5
20181015223904 63 271 0.0 0.0 0.00 0.55 0.00 92 1010.5
20181015223404 63 271 0.0 0.0 0.00 0.55 0.00 92 1010.5
20181015221904 63 271 0.0 0.0 0.00 0.55 0.00 92 1010.4
20181015221404 63 271 0.0 0.0 0.00 0.55 0.00 92 1010.4
20181015220905 63 271 0.0 0.0 0.00 0.55 0.00 92 1010.4
20181015220403 63 276 0.0 0.0 0.00 0.55 0.00 92 1010.4
20181015214904 63 254 0.0 0.0 0.00 0.55 0.55 93 1010.3
20181015214404 63 254 0.0 0.0 0.00 0.55 0.55 93 1010.2
20181015213903 63 254 0.0 0.0 0.00 0.55 0.55 93 1010.1
20181015213403 63 254 0.0 0.0 0.00 0.55 0.55 93 1010.1
20181015211903 63 252 0.0 0.0 0.02 0.55 0.55 93 1010.0
20181015211403 63 253 0.0 0.0 0.02 0.55 0.55 93 1010.0
20181015210903 62 249 0.0 0.0 0.02 0.55 0.55 93 1010.0
20181015210403 62 251 0.0 0.0 0.02 0.55 0.55 93 1010.0
20181015204904 62 258 0.0 0.0 0.02 0.55 0.55 93 1010.0
20181015204404 62 258 0.0 0.0 0.02 0.55 0.55 93 1010.0
20181015203903 62 258 0.0 0.0 0.02 0.55 0.55 93 1010.0
20181015203404 62 263 0.0 0.0 0.02 0.55 0.55 93 1009.9
20181015201903 62 261 0.0 0.0 0.00 0.53 0.53 93 1009.9
20181015201404 62 260 0.0 0.0 0.00 0.53 0.53 93 1009.9
20181015200904 62 259 0.0 0.0 0.00 0.53 0.53 94 1009.8
20181015200403 62 259 0.0 0.0 0.00 0.53 0.53 94 1009.9
20181015194904 62 258 0.0 0.0 0.00 0.53 0.53 93 1009.6
20181015194403 62 259 0.0 0.0 0.00 0.53 0.53 93 1009.7
20181015193904 62 256 0.0 0.0 0.00 0.53 0.53 93 1009.7
20181015193403 62 260 0.0 0.0 0.00 0.53 0.53 94 1009.7
20181015191903 62 265 0.0 0.0 0.00 0.53 0.53 94 1009.6
20181015191403 62 268 0.0 0.0 0.00 0.53 0.53 94 1009.5
20181015190904 62 268 0.0 0.0 0.00 0.53 0.53 94 1009.5
20181015190403 62 268 0.0 0.0 0.00 0.53 0.53 94 1009.3
20181015184903 62 143 0.0 0.0 0.00 0.53 0.53 94 1009.1
20181015184403 62 142 0.0 0.0 0.00 0.53 0.53 94 1009.1
20181015183904 62 134 0.0 0.0 0.00 0.53 0.53 93 1009.1
20181015183404 62 109 0.0 0.0 0.00 0.53 0.53 93 1009.1
20181015181903 62 234 0.0 0.0 0.00 0.53 0.53 93 1009.0
20181015181404 62 234 0.0 0.0 0.00 0.53 0.53 93 1009.0
20181015180903 62 239 0.0 0.0 0.00 0.53 0.53 93 1009.0
20181015180404 62 221 0.0 7.0 0.01 0.53 0.53 93 1009.0
20181015174903 62 235 2.0 8.0 0.01 0.53 0.53 93 1009.1
20181015174403 63 211 3.0 6.0 0.01 0.53 0.53 93 1009.0
20181015173903 63 208 0.0 3.0 0.01 0.53 0.53 94 1009.1
20181015173404 63 239 0.0 0.0 0.02 0.53 0.53 94 1009.0
20181015171904 63 225 0.0 0.0 0.21 0.53 0.53 94 1008.9
20181015171404 63 240 0.0 0.0 0.26 0.53 0.53 94 1009.0
20181015170904 63 230 0.0 3.0 0.31 0.53 0.53 94 1009.0
20181015170403 63 228 1.0 9.0 0.32 0.52 0.52 94 1009.0
20181015164904 63 212 0.0 0.0 0.39 0.52 0.52 94 1008.9
20181015164404 63 232 0.0 0.0 0.39 0.52 0.52 94 1009.1
20181015163904 63 206 0.0 0.0 0.40 0.52 0.52 94 1009.0
20181015163403 63 272 0.0 12.0 0.39 0.50 0.50 94 1009.2
20181015161904 62 205 1.0 9.0 0.21 0.31 0.31 94 1008.6
20181015161403 62 207 2.0 6.0 0.17 0.27 0.27 93 1008.6
20181015160904 62 184 1.0 9.0 0.13 0.22 0.22 93 1008.5
20181015160404 62 189 5.0 12.0 0.11 0.20 0.20 93 1008.5
20181015154903 62 183 1.0 17.0 0.08 0.13 0.13 93 1008.8
20181015154404 62 195 5.0 13.0 0.08 0.13 0.13 93 1008.7
20181015153904 62 179 5.0 16.0 0.08 0.12 0.12 92 1008.8
20181015153403 62 189 3.0 17.0 0.08 0.11 0.11 92 1009.0
20181015151904 62 191 7.0 20.0 0.09 0.10 0.10 92 1009.3
20181015151403 62 187 3.0 15.0 0.09 0.10 0.10 91 1009.5
20181015150903 62 190 2.0 16.0 0.09 0.09 0.09 91 1009.6
20181015150404 62 200 7.0 20.0 0.09 0.09 0.09 90 1009.6
20181015144904 62 196 6.0 20.0 0.06 0.06 0.06 89 1009.6
20181015144404 63 199 8.0 22.0 0.05 0.05 0.05 88 1009.6
20181015143904 63 192 9.0 18.0 0.04 0.04 0.04 87 1009.7
20181015143404 63 207 4.0 16.0 0.03 0.03 0.03 86 1009.7
20181015141903 64 199 3.0 12.0 0.01 0.01 0.01 84 1010.0
20181015141403 64 212 3.0 12.0 0.01 0.01 0.01 83 1010.1
20181015140903 64 201 3.0 8.0 0.01 0.01 0.01 82 1010.2
20181015140403 64 215 7.0 17.0 0.00 0.00 0.00 81 1010.2
20181015134904 65 182 9.0 15.0 0.00 0.00 0.00 75 1010.5
20181015134403 66 195 7.0 20.0 0.00 0.00 0.00 75 1010.5
20181015133904 66 205 3.0 10.0 0.00 0.00 0.00 75 1010.5
20181015133403 66 210 8.0 21.0 0.00 0.00 0.00 74 1010.5
20181015131904 66 207 5.0 20.0 0.00 0.00 0.00 73 1011.1
20181015131404 67 208 12.0 20.0 0.00 0.00 0.00 71 1011.0
20181015130903 67 212 4.0 13.0 0.00 0.00 0.00 69 1011.1
20181015130403 67 183 4.0 20.0 0.00 0.00 0.00 69 1011.2
20181015124904 67 185 6.0 16.0 0.00 0.00 0.00 66 1011.6
20181015124404 67 194 3.0 14.0 0.00 0.00 0.00 67 1011.7
20181015123904 67 166 4.0 15.0 0.00 0.00 0.00 68 1011.7
20181015123404 66 198 6.0 16.0 0.00 0.00 0.00 68 1011.6